createdAt,value
2017-08-30T00:01:50.255Z,20.50
2017-08-30T00:04:17.712Z,22.40
2017-08-30T00:06:45.232Z,21.00
2017-08-30T00:09:12.683Z,22.20
2017-08-30T00:11:40.159Z,25.53
2017-08-30T00:14:07.656Z,24.60
2017-08-30T00:16:35.111Z,21.87
2017-08-30T00:19:02.610Z,23.60
2017-08-30T00:21:30.072Z,26.83
2017-08-30T00:23:57.556Z,24.87
2017-08-30T00:26:28.492Z,26.63
2017-08-30T00:28:55.979Z,22.87
2017-08-30T00:31:23.436Z,22.80
2017-08-30T00:33:50.922Z,22.40
2017-08-30T00:36:18.410Z,24.13
2017-08-30T00:38:45.887Z,25.00
2017-08-30T00:41:13.355Z,25.20
2017-08-30T00:43:40.831Z,22.40
2017-08-30T00:46:08.283Z,23.97
2017-08-30T00:48:35.755Z,27.90
2017-08-30T00:51:03.216Z,27.17
2017-08-30T00:53:30.793Z,34.13
2017-08-30T00:55:58.270Z,26.00
2017-08-30T00:58:25.773Z,22.87
2017-08-30T01:00:53.249Z,23.77
2017-08-30T01:03:20.736Z,21.10
2017-08-30T01:05:48.201Z,22.93
2017-08-30T01:08:15.684Z,23.23
2017-08-30T01:10:43.140Z,26.37
2017-08-30T01:13:10.655Z,22.27
2017-08-30T01:15:38.116Z,26.30
2017-08-30T01:18:05.595Z,27.80
2017-08-30T01:20:33.052Z,27.60
2017-08-30T01:23:00.532Z,21.77
2017-08-30T01:25:27.990Z,22.33
2017-08-30T01:27:55.475Z,24.40
2017-08-30T01:30:22.927Z,24.40
2017-08-30T01:32:50.413Z,24.20
2017-08-30T01:35:17.883Z,23.43
2017-08-30T01:37:45.368Z,29.83
2017-08-30T01:40:12.830Z,21.77
2017-08-30T01:42:40.289Z,25.60
2017-08-30T01:45:07.784Z,28.00
2017-08-30T01:47:35.411Z,28.10
2017-08-30T01:50:02.899Z,25.67
2017-08-30T01:52:30.356Z,24.00
2017-08-30T01:54:57.863Z,22.97
2017-08-30T01:57:25.320Z,24.00
2017-08-30T01:59:52.792Z,22.20
2017-08-30T02:02:20.243Z,24.47
2017-08-30T02:04:47.724Z,24.20
2017-08-30T02:07:15.176Z,26.07
2017-08-30T02:09:42.666Z,23.20
2017-08-30T02:12:10.134Z,23.00
2017-08-30T02:14:37.639Z,22.17
2017-08-30T02:17:05.100Z,24.10
2017-08-30T02:19:32.584Z,25.77
2017-08-30T02:22:00.058Z,32.73
2017-08-30T02:24:27.545Z,23.30
2017-08-30T02:26:55.004Z,23.77
2017-08-30T02:29:22.488Z,23.87
2017-08-30T02:31:49.953Z,27.70
2017-08-30T02:34:17.438Z,26.50
2017-08-30T02:36:44.912Z,32.07
2017-08-30T02:39:12.400Z,25.73
2017-08-30T02:41:39.852Z,24.67
2017-08-30T02:44:07.360Z,26.80
2017-08-30T02:46:34.833Z,28.00
2017-08-30T02:49:02.302Z,29.53
2017-08-30T02:51:29.793Z,27.27
2017-08-30T02:53:57.247Z,26.63
2017-08-30T02:56:24.736Z,30.07
2017-08-30T02:58:52.195Z,27.03
2017-08-30T03:01:19.679Z,25.77
2017-08-30T03:03:47.141Z,25.77
2017-08-30T03:06:14.625Z,28.60
2017-08-30T03:08:42.075Z,25.47
2017-08-30T03:11:09.560Z,28.63
2017-08-30T03:13:37.011Z,27.40
2017-08-30T03:16:04.459Z,29.23
2017-08-30T03:18:31.947Z,34.33
2017-08-30T03:20:59.403Z,28.93
2017-08-30T03:23:26.898Z,31.87
2017-08-30T03:25:54.378Z,25.90
2017-08-30T03:28:21.856Z,32.13
2017-08-30T03:30:49.323Z,32.30
2017-08-30T03:33:16.811Z,34.83
2017-08-30T03:35:44.271Z,28.37
2017-08-30T03:38:11.738Z,29.37
2017-08-30T03:40:39.225Z,26.47
2017-08-30T03:43:06.697Z,28.70
2017-08-30T03:45:34.204Z,25.20
2017-08-30T03:48:01.659Z,26.40
2017-08-30T03:50:29.135Z,28.30
2017-08-30T03:52:56.606Z,30.47
2017-08-30T03:55:24.087Z,34.60
2017-08-30T03:57:51.544Z,30.50
2017-08-30T04:00:19.027Z,27.37
2017-08-30T04:02:46.504Z,34.50
2017-08-30T04:05:14.016Z,29.50
2017-08-30T04:07:41.483Z,30.17
2017-08-30T04:10:08.957Z,34.57
2017-08-30T04:12:39.444Z,30.10
2017-08-30T04:15:06.930Z,31.90
2017-08-30T04:17:34.427Z,26.90
2017-08-30T04:20:01.889Z,26.87
2017-08-30T04:22:29.385Z,25.63
2017-08-30T04:24:56.848Z,29.13
2017-08-30T04:27:24.425Z,29.10
2017-08-30T04:29:51.880Z,27.80
2017-08-30T04:32:19.366Z,29.00
2017-08-30T04:34:46.819Z,29.73
2017-08-30T04:37:14.305Z,30.23
2017-08-30T04:39:41.777Z,34.93
2017-08-30T04:42:09.252Z,33.80
2017-08-30T04:44:36.710Z,29.40
2017-08-30T04:47:04.187Z,33.37
2017-08-30T04:49:31.643Z,33.37
2017-08-30T04:51:59.182Z,38.97
2017-08-30T04:54:26.636Z,31.90
2017-08-30T04:56:54.136Z,34.93
2017-08-30T04:59:21.597Z,28.30
2017-08-30T05:01:49.075Z,42.20
2017-08-30T05:04:16.528Z,31.30
2017-08-30T05:06:44.004Z,43.43
2017-08-30T05:09:11.463Z,27.87
2017-08-30T05:11:38.935Z,43.90
2017-08-30T05:14:06.396Z,33.40
2017-08-30T05:16:33.886Z,30.83
2017-08-30T05:19:01.344Z,34.53
2017-08-30T05:21:28.820Z,34.60
2017-08-30T05:23:56.280Z,31.30
2017-08-30T05:26:23.770Z,30.77
2017-08-30T05:28:51.220Z,30.10
2017-08-30T05:31:18.672Z,33.40
2017-08-30T05:33:46.147Z,29.60
2017-08-30T05:36:13.603Z,29.20
2017-08-30T05:38:41.352Z,32.30
2017-08-30T05:41:08.804Z,29.60
2017-08-30T05:43:36.282Z,34.33
2017-08-30T05:46:03.732Z,33.70
2017-08-30T05:48:31.225Z,28.13
2017-08-30T05:50:58.679Z,31.03
2017-08-30T05:53:26.173Z,29.90
2017-08-30T05:55:53.628Z,28.50
2017-08-30T05:58:21.105Z,27.03
2017-08-30T06:00:48.562Z,29.43
2017-08-30T06:03:16.035Z,37.00
2017-08-30T06:05:43.495Z,29.53
2017-08-30T06:08:10.971Z,31.50
2017-08-30T06:10:38.438Z,29.13
2017-08-30T06:13:05.920Z,28.77
2017-08-30T06:15:33.375Z,29.27
2017-08-30T06:18:00.855Z,33.20
2017-08-30T06:20:28.322Z,30.77
2017-08-30T06:22:55.812Z,26.93
2017-08-30T06:25:23.281Z,26.77
2017-08-30T06:27:50.768Z,25.70
2017-08-30T06:30:18.219Z,29.47
2017-08-30T06:32:45.703Z,28.13
2017-08-30T06:35:13.160Z,28.73
2017-08-30T06:37:40.612Z,28.27
2017-08-30T06:40:08.133Z,33.00
2017-08-30T06:42:35.606Z,32.40
2017-08-30T06:45:03.100Z,28.03
2017-08-30T06:47:30.583Z,32.27
2017-08-30T06:49:58.060Z,32.03
2017-08-30T06:52:25.517Z,33.23
2017-08-30T06:54:52.996Z,34.97
2017-08-30T06:57:20.447Z,32.57
2017-08-30T06:59:47.920Z,32.50
2017-08-30T07:02:15.390Z,31.03
2017-08-30T07:04:42.860Z,38.20
2017-08-30T07:07:10.339Z,31.40
2017-08-30T07:09:37.801Z,35.10
2017-08-30T07:12:05.294Z,33.43
2017-08-30T07:14:32.764Z,32.83
2017-08-30T07:17:00.238Z,35.33
2017-08-30T07:19:27.696Z,43.50
2017-08-30T07:21:55.180Z,42.00
2017-08-30T07:24:22.677Z,34.70
2017-08-30T07:26:50.151Z,34.73
2017-08-30T07:29:17.600Z,38.03
2017-08-30T07:31:45.067Z,33.97
2017-08-30T07:34:12.551Z,33.63
2017-08-30T07:36:40.022Z,31.13
2017-08-30T07:39:07.499Z,35.27
2017-08-30T07:41:34.978Z,32.23
2017-08-30T07:44:02.477Z,32.73
2017-08-30T07:46:29.936Z,31.37
2017-08-30T07:48:57.440Z,30.37
2017-08-30T07:51:24.899Z,30.40
2017-08-30T07:53:52.412Z,28.57
2017-08-30T07:56:19.863Z,29.13
2017-08-30T07:58:47.345Z,36.70
2017-08-30T08:01:14.798Z,36.17
2017-08-30T08:03:42.275Z,31.47
2017-08-30T08:06:09.798Z,27.57
2017-08-30T08:08:37.292Z,26.40
2017-08-30T08:11:04.752Z,26.53
2017-08-30T08:13:32.244Z,27.07
2017-08-30T08:15:59.754Z,25.40
2017-08-30T08:18:27.236Z,25.80
2017-08-30T08:20:54.702Z,27.70
2017-08-30T08:23:22.188Z,23.40
2017-08-30T08:25:49.639Z,23.47
2017-08-30T08:28:17.127Z,26.07
2017-08-30T08:30:44.593Z,23.30
2017-08-30T08:33:12.073Z,20.30
2017-08-30T08:35:39.552Z,21.40
2017-08-30T08:38:07.014Z,27.40
2017-08-30T08:40:34.499Z,21.73
2017-08-30T08:43:01.976Z,23.27
2017-08-30T08:45:29.452Z,20.73
2017-08-30T08:47:56.929Z,20.40
2017-08-30T08:50:24.403Z,21.23
2017-08-30T08:52:51.874Z,21.73
2017-08-30T08:55:19.361Z,44.53
2017-08-30T08:57:46.833Z,20.27
2017-08-30T09:00:14.313Z,19.83
2017-08-30T09:02:41.772Z,19.53
2017-08-30T09:05:09.248Z,22.17
2017-08-30T09:07:36.708Z,19.63
2017-08-30T09:10:04.216Z,20.80
2017-08-30T09:12:31.694Z,18.07
2017-08-30T09:14:59.187Z,18.73
2017-08-30T09:17:26.674Z,23.33
2017-08-30T09:19:54.157Z,17.30
2017-08-30T09:22:21.628Z,16.80
2017-08-30T09:24:49.097Z,20.03
2017-08-30T09:27:16.576Z,20.40
2017-08-30T09:29:44.031Z,16.20
2017-08-30T09:32:11.517Z,16.00
2017-08-30T09:34:38.979Z,20.17
2017-08-30T09:37:06.460Z,16.67
2017-08-30T09:39:33.920Z,22.70
2017-08-30T09:42:01.403Z,27.80
2017-08-30T09:44:28.855Z,18.00
2017-08-30T09:46:56.336Z,26.33
2017-08-30T09:49:23.801Z,18.30
2017-08-30T09:51:51.279Z,20.23
2017-08-30T09:54:18.739Z,15.90
2017-08-30T09:56:46.216Z,15.80
2017-08-30T09:59:13.686Z,21.83
2017-08-30T10:01:41.174Z,15.60
2017-08-30T10:04:08.891Z,16.73
2017-08-30T10:06:36.349Z,14.30
2017-08-30T10:09:03.831Z,18.77
2017-08-30T10:11:31.288Z,29.00
2017-08-30T10:13:58.780Z,13.17
2017-08-30T10:16:26.245Z,11.77
2017-08-30T10:18:53.719Z,19.73
2017-08-30T10:21:21.179Z,16.57
2017-08-30T10:23:48.652Z,19.73
2017-08-30T10:26:16.108Z,13.93
2017-08-30T10:28:43.587Z,12.60
2017-08-30T10:31:11.053Z,11.30
2017-08-30T10:33:38.550Z,16.63
2017-08-30T10:36:06.004Z,12.17
2017-08-30T10:38:33.489Z,15.03
2017-08-30T10:41:00.958Z,13.77
2017-08-30T10:43:28.428Z,18.87
2017-08-30T10:45:55.888Z,12.50
2017-08-30T10:48:23.360Z,20.43
2017-08-30T10:50:50.831Z,20.70
2017-08-30T10:53:18.297Z,13.03
2017-08-30T10:55:45.790Z,19.90
2017-08-30T10:58:13.248Z,10.90
2017-08-30T11:00:40.822Z,13.50
2017-08-30T11:03:08.294Z,16.43
2017-08-30T11:05:35.774Z,19.90
2017-08-30T11:08:03.250Z,12.33
2017-08-30T11:10:30.723Z,15.23
2017-08-30T11:12:58.180Z,11.07
2017-08-30T11:15:25.655Z,17.57
2017-08-30T11:17:53.122Z,17.03
2017-08-30T11:20:20.599Z,13.87
2017-08-30T11:22:48.059Z,16.20
2017-08-30T11:25:15.542Z,16.73
2017-08-30T11:27:43.000Z,18.20
2017-08-30T11:30:10.479Z,15.13
2017-08-30T11:32:37.936Z,11.00
2017-08-30T11:35:05.411Z,19.63
2017-08-30T11:37:32.881Z,11.20
2017-08-30T11:40:00.381Z,11.60
2017-08-30T11:42:27.853Z,22.60
2017-08-30T11:44:55.326Z,12.67
2017-08-30T11:47:22.804Z,14.87
2017-08-30T11:49:50.308Z,14.13
2017-08-30T11:52:17.799Z,17.80
2017-08-30T11:54:45.261Z,12.03
2017-08-30T11:57:12.752Z,11.87
2017-08-30T11:59:40.222Z,16.73
2017-08-30T12:02:07.737Z,19.23
2017-08-30T12:04:35.206Z,18.17
2017-08-30T12:07:02.683Z,28.97
2017-08-30T12:09:30.145Z,14.53
2017-08-30T12:11:57.631Z,12.23
2017-08-30T12:14:25.097Z,14.03
2017-08-30T12:16:52.617Z,14.03
2017-08-30T12:19:20.064Z,13.03
2017-08-30T12:21:47.549Z,11.77
2017-08-30T12:24:15.014Z,17.17
2017-08-30T12:26:42.491Z,26.27
2017-08-30T12:29:09.940Z,18.17
2017-08-30T12:31:37.408Z,22.67
2017-08-30T12:34:04.864Z,22.20
2017-08-30T12:36:37.903Z,13.30
2017-08-30T12:39:10.927Z,13.80
2017-08-30T12:41:38.417Z,19.10
2017-08-30T12:44:05.871Z,25.07
2017-08-30T12:46:33.348Z,17.50
2017-08-30T12:49:00.838Z,15.13
2017-08-30T12:51:28.296Z,17.13
2017-08-30T12:53:55.778Z,12.10
2017-08-30T12:56:23.244Z,8.17
2017-08-30T12:58:50.730Z,14.50
2017-08-30T13:01:18.187Z,27.03
2017-08-30T13:03:45.676Z,16.80
2017-08-30T13:06:13.136Z,29.40
2017-08-30T13:08:40.611Z,13.50
2017-08-30T13:11:08.052Z,7.50
2017-08-30T13:13:35.540Z,12.93
2017-08-30T13:16:03.021Z,11.80
2017-08-30T13:18:30.472Z,8.70
2017-08-30T13:20:57.943Z,15.87
2017-08-30T13:23:25.391Z,12.60
2017-08-30T13:25:52.859Z,20.40
2017-08-30T13:28:20.312Z,8.40
2017-08-30T13:30:47.811Z,17.20
2017-08-30T13:33:15.260Z,11.10
2017-08-30T13:35:42.754Z,35.80
2017-08-30T13:38:10.208Z,12.97
2017-08-30T13:40:37.693Z,13.87
2017-08-30T13:43:05.146Z,14.93
2017-08-30T13:45:32.620Z,20.57
2017-08-30T13:48:00.063Z,8.90
2017-08-30T13:50:27.558Z,10.77
2017-08-30T13:52:55.011Z,16.13
2017-08-30T13:55:22.488Z,17.47
2017-08-30T13:57:49.944Z,25.93
2017-08-30T14:00:17.430Z,13.00
2017-08-30T14:02:44.897Z,14.93
2017-08-30T14:05:12.383Z,15.17
2017-08-30T14:07:39.850Z,10.63
2017-08-30T14:10:07.304Z,28.93
2017-08-30T14:12:34.784Z,14.10
2017-08-30T14:15:02.240Z,8.20
2017-08-30T14:17:29.720Z,17.57
2017-08-30T14:19:57.193Z,16.00
2017-08-30T14:22:24.672Z,12.03
2017-08-30T14:24:52.136Z,14.80
2017-08-30T14:27:19.612Z,15.70
2017-08-30T14:29:47.064Z,11.50
2017-08-30T14:32:14.546Z,24.63
2017-08-30T14:34:41.996Z,5.80
2017-08-30T14:37:09.480Z,9.23
2017-08-30T14:39:36.933Z,17.47
2017-08-30T14:42:04.416Z,8.73
2017-08-30T14:44:31.868Z,6.30
2017-08-30T14:46:59.325Z,13.57
2017-08-30T14:49:26.803Z,12.33
2017-08-30T14:51:54.256Z,7.43
2017-08-30T14:54:21.734Z,9.63
2017-08-30T14:56:49.207Z,12.97
2017-08-30T14:59:16.690Z,15.17
2017-08-30T15:01:44.136Z,8.53
2017-08-30T15:04:11.608Z,13.23
2017-08-30T15:06:39.062Z,8.70
2017-08-30T15:09:06.570Z,11.50
2017-08-30T15:11:34.027Z,11.57
2017-08-30T15:14:01.526Z,6.93
2017-08-30T15:16:28.989Z,16.43
2017-08-30T15:18:56.466Z,6.13
2017-08-30T15:21:23.923Z,6.73
2017-08-30T15:23:51.399Z,4.47
2017-08-30T15:26:18.916Z,7.10
2017-08-30T15:28:46.380Z,16.23
2017-08-30T15:31:13.847Z,9.93
2017-08-30T15:33:41.299Z,9.97
2017-08-30T15:36:08.789Z,5.27
2017-08-30T15:38:36.252Z,11.80
2017-08-30T15:41:03.719Z,5.90
2017-08-30T15:43:31.177Z,5.83
2017-08-30T15:45:58.648Z,7.27
2017-08-30T15:48:26.100Z,16.87
2017-08-30T15:50:53.571Z,10.27
2017-08-30T15:53:21.016Z,7.47
2017-08-30T15:55:48.501Z,13.67
2017-08-30T15:58:15.962Z,9.53
2017-08-30T16:00:43.431Z,11.13
2017-08-30T16:03:10.888Z,13.30
2017-08-30T16:05:38.374Z,8.03
2017-08-30T16:08:05.828Z,10.03
2017-08-30T16:10:33.302Z,8.53
2017-08-30T16:13:00.770Z,7.43
2017-08-30T16:15:28.239Z,12.97
2017-08-30T16:17:55.684Z,9.93
2017-08-30T16:20:23.162Z,7.20
2017-08-30T16:22:50.622Z,4.40
2017-08-30T16:25:18.072Z,9.73
2017-08-30T16:27:45.549Z,8.10
2017-08-30T16:30:13.014Z,13.20
2017-08-30T16:32:40.483Z,7.43
2017-08-30T16:35:07.942Z,9.97
2017-08-30T16:37:35.419Z,16.40
2017-08-30T16:40:02.891Z,5.33
2017-08-30T16:42:30.364Z,9.37
2017-08-30T16:44:57.808Z,8.70
2017-08-30T16:47:25.494Z,13.00
2017-08-30T16:49:52.968Z,5.30
2017-08-30T16:52:20.476Z,9.20
2017-08-30T16:54:49.021Z,4.47
2017-08-30T16:57:17.252Z,10.10
2017-08-30T16:59:44.832Z,6.53
2017-08-30T17:02:12.370Z,10.17
2017-08-30T17:04:39.865Z,8.20
2017-08-30T17:07:07.382Z,7.07
2017-08-30T17:09:34.911Z,20.03
2017-08-30T17:12:02.417Z,5.10
2017-08-30T17:14:30.041Z,10.63
2017-08-30T17:16:57.601Z,7.60
2017-08-30T17:19:25.126Z,7.97
2017-08-30T17:21:52.617Z,13.23
2017-08-30T17:24:20.127Z,6.10
2017-08-30T17:26:47.633Z,10.63
2017-08-30T17:29:15.139Z,6.13
2017-08-30T17:31:42.637Z,5.37
2017-08-30T17:34:10.152Z,8.93
2017-08-30T17:36:37.646Z,11.00
2017-08-30T17:39:05.171Z,5.50
2017-08-30T17:41:32.676Z,8.20
2017-08-30T17:44:00.191Z,8.30
2017-08-30T17:46:27.683Z,12.03
2017-08-30T17:48:55.193Z,10.70
2017-08-30T17:51:22.660Z,4.43
2017-08-30T17:53:50.129Z,10.70
2017-08-30T17:56:17.604Z,5.10
2017-08-30T17:58:45.069Z,11.43
2017-08-30T18:01:12.554Z,6.20
2017-08-30T18:03:40.004Z,6.03
2017-08-30T18:06:07.483Z,13.13
2017-08-30T18:08:34.972Z,10.03
2017-08-30T18:11:02.457Z,6.87
2017-08-30T18:13:30.177Z,9.70
2017-08-30T18:15:57.649Z,7.70
2017-08-30T18:18:25.110Z,6.87
2017-08-30T18:20:52.583Z,10.23
2017-08-30T18:23:20.031Z,6.20
2017-08-30T18:25:48.391Z,12.87
2017-08-30T18:28:15.856Z,17.13
2017-08-30T18:30:43.332Z,11.20
2017-08-30T18:33:10.780Z,5.00
2017-08-30T18:35:38.252Z,16.73
2017-08-30T18:38:05.699Z,8.50
2017-08-30T18:40:33.275Z,7.90
2017-08-30T18:43:00.724Z,12.47
2017-08-30T18:45:28.208Z,14.17
2017-08-30T18:47:55.681Z,10.93
2017-08-30T18:50:23.187Z,6.60
2017-08-30T18:52:50.652Z,8.90
2017-08-30T18:55:18.179Z,13.40
2017-08-30T18:57:45.651Z,12.40
2017-08-30T19:00:13.423Z,6.97
2017-08-30T19:02:40.911Z,5.23
2017-08-30T19:05:08.372Z,8.20
2017-08-30T19:07:35.847Z,9.87
2017-08-30T19:10:03.300Z,5.03
2017-08-30T19:12:30.775Z,20.77
2017-08-30T19:14:58.240Z,9.23
2017-08-30T19:17:25.720Z,14.03
2017-08-30T19:19:53.565Z,7.27
2017-08-30T19:22:21.427Z,11.40
2017-08-30T19:24:48.891Z,4.50
2017-08-30T19:27:16.581Z,10.63
2017-08-30T19:29:44.252Z,5.93
2017-08-30T19:32:11.739Z,10.10
2017-08-30T19:34:39.210Z,7.13
2017-08-30T19:37:06.683Z,5.60
2017-08-30T19:39:35.077Z,10.43
2017-08-30T19:42:02.548Z,7.70
2017-08-30T19:44:30.013Z,10.83
2017-08-30T19:46:57.610Z,4.83
2017-08-30T19:49:25.060Z,7.27
2017-08-30T19:51:52.531Z,5.47
2017-08-30T19:54:19.980Z,8.43
2017-08-30T19:56:47.455Z,10.13
2017-08-30T19:59:14.900Z,4.10
2017-08-30T20:01:42.373Z,6.13
2017-08-30T20:04:09.849Z,7.83
2017-08-30T20:09:30.522Z,7.70
2017-08-30T20:20:37.041Z,6.70
2017-08-30T20:23:04.524Z,5.63
2017-08-30T20:25:31.985Z,11.13
2017-08-30T20:27:59.459Z,7.20
2017-08-30T20:30:26.918Z,4.20
2017-08-30T20:32:54.419Z,13.83
2017-08-30T20:35:21.925Z,4.03
2017-08-30T20:37:49.470Z,5.97
2017-08-30T20:40:16.983Z,5.13
2017-08-30T20:42:44.488Z,8.00
2017-08-30T20:45:11.999Z,7.60
2017-08-30T20:47:39.461Z,5.10
2017-08-30T20:50:06.926Z,7.70
2017-08-30T20:52:34.621Z,3.43
2017-08-30T20:55:02.240Z,5.70
2017-08-30T20:57:29.730Z,3.20
2017-08-30T20:59:57.253Z,4.50
2017-08-30T21:02:24.729Z,2.97
2017-08-30T21:04:52.233Z,6.73
2017-08-30T21:07:19.692Z,4.47
2017-08-30T21:09:47.191Z,6.40
2017-08-30T21:12:14.681Z,10.83
2017-08-30T21:14:42.204Z,8.83
2017-08-30T21:17:09.833Z,4.70
2017-08-30T21:19:37.337Z,4.20
2017-08-30T21:22:04.806Z,15.00
2017-08-30T21:24:32.288Z,7.80
2017-08-30T21:26:59.768Z,5.37
2017-08-30T21:29:27.284Z,4.33
2017-08-30T21:31:54.743Z,4.07
2017-08-30T21:34:22.235Z,6.73
2017-08-30T21:36:49.736Z,5.43
2017-08-30T21:39:17.228Z,9.10
2017-08-30T21:41:44.703Z,3.57
2017-08-30T21:44:12.156Z,2.77
2017-08-30T21:46:39.627Z,6.90
2017-08-30T21:49:07.080Z,2.90
2017-08-30T21:51:34.557Z,9.17
2017-08-30T21:54:02.012Z,3.87
2017-08-30T21:56:29.513Z,3.33
2017-08-30T21:58:56.965Z,3.60
2017-08-30T22:01:24.468Z,5.77
2017-08-30T22:03:51.929Z,12.73
2017-08-30T22:06:19.406Z,9.50
2017-08-30T22:08:46.869Z,8.30
2017-08-30T22:11:14.350Z,3.63
2017-08-30T22:13:41.841Z,3.97
2017-08-30T22:16:09.320Z,5.80
2017-08-30T22:18:36.788Z,5.30
2017-08-30T22:21:04.321Z,3.27
2017-08-30T22:23:31.779Z,4.73
2017-08-30T22:25:59.265Z,4.50
2017-08-30T22:28:26.715Z,2.93
2017-08-30T22:30:54.204Z,7.87
2017-08-30T22:33:21.660Z,6.60
2017-08-30T22:35:49.139Z,3.07
2017-08-30T22:38:16.628Z,4.47
2017-08-30T22:40:44.096Z,3.17
2017-08-30T22:43:11.565Z,11.70
2017-08-30T22:45:39.060Z,3.30
2017-08-30T22:48:06.529Z,4.40
2017-08-30T22:50:33.992Z,2.37
2017-08-30T22:53:01.475Z,3.23
2017-08-30T22:55:28.938Z,3.90
2017-08-30T22:57:56.420Z,4.73
2017-08-30T23:00:23.876Z,5.80
2017-08-30T23:02:51.355Z,5.70
2017-08-30T23:05:18.820Z,2.73
2017-08-30T23:07:46.283Z,7.20
2017-08-30T23:10:13.731Z,4.83
2017-08-30T23:12:41.220Z,15.57
2017-08-30T23:15:08.689Z,6.10
2017-08-30T23:17:36.168Z,4.40
2017-08-30T23:20:03.619Z,6.47
2017-08-30T23:22:31.101Z,6.70
2017-08-30T23:24:58.561Z,9.80
2017-08-30T23:27:26.040Z,4.80
2017-08-30T23:29:53.552Z,6.23
2017-08-30T23:32:21.049Z,10.40
2017-08-30T23:34:48.523Z,11.53
2017-08-30T23:37:16.025Z,13.17
2017-08-30T23:39:43.500Z,11.03
2017-08-30T23:42:11.031Z,5.27
2017-08-30T23:44:38.501Z,6.60
2017-08-30T23:47:05.993Z,3.37
2017-08-30T23:49:33.457Z,7.03
2017-08-30T23:52:00.912Z,7.80
2017-08-30T23:54:28.413Z,10.20
2017-08-30T23:56:55.868Z,5.53
2017-08-30T23:59:23.336Z,5.73
